createdAt,value
2018-12-04T00:00:36.190Z,98926.75
2018-12-04T00:03:06.988Z,98930.67
2018-12-04T00:05:36.420Z,98936.81
2018-12-04T00:08:05.797Z,98953.52
2018-12-04T00:10:35.327Z,98955.69
2018-12-04T00:13:04.733Z,98953.70
2018-12-04T00:15:33.992Z,98950.26
2018-12-04T00:18:03.598Z,98954.63
2018-12-04T00:20:33.006Z,98965.53
2018-12-04T00:23:02.704Z,98961.60
2018-12-04T00:25:31.982Z,98967.77
2018-12-04T00:28:01.237Z,98961.60
2018-12-04T00:30:30.724Z,98960.35
2018-12-04T00:32:59.995Z,98958.10
2018-12-04T00:35:29.179Z,98960.56
2018-12-04T00:37:58.665Z,98966.06
2018-12-04T00:40:27.988Z,98967.55
2018-12-04T00:42:57.481Z,98969.39
2018-12-04T00:45:26.818Z,98969.19
2018-12-04T00:47:56.439Z,98969.61
2018-12-04T00:50:25.682Z,98967.88
2018-12-04T00:52:55.235Z,98966.02
2018-12-04T00:55:24.623Z,98967.27
2018-12-04T00:57:53.939Z,98972.13
2018-12-04T01:00:23.349Z,98975.67
2018-12-04T01:02:52.727Z,98966.06
2018-12-04T01:05:21.987Z,98969.61
2018-12-04T01:07:51.108Z,98961.66
2018-12-04T01:10:20.420Z,98955.22
2018-12-04T01:12:49.588Z,98961.60
2018-12-04T01:15:18.785Z,98959.74
2018-12-04T01:17:48.218Z,98958.92
2018-12-04T01:20:17.636Z,98964.16
2018-12-04T01:22:46.911Z,98962.69
2018-12-04T01:25:16.169Z,98966.62
2018-12-04T01:27:45.517Z,98974.48
2018-12-04T01:30:14.722Z,98975.23
2018-12-04T01:32:44.158Z,98979.59
2018-12-04T01:35:13.655Z,98973.89
2018-12-04T01:37:42.774Z,98978.69
2018-12-04T01:40:12.452Z,98982.12
2018-12-04T01:42:42.219Z,98976.55
2018-12-04T01:45:11.928Z,98988.23
2018-12-04T01:47:41.500Z,98993.41
2018-12-04T01:50:11.282Z,98997.73
2018-12-04T01:52:40.836Z,98994.34
2018-12-04T01:55:10.299Z,98998.72
2018-12-04T01:57:39.867Z,99004.84
2018-12-04T02:00:09.555Z,99004.90
2018-12-04T02:02:39.185Z,98994.55
2018-12-04T02:05:08.466Z,99007.64
2018-12-04T02:07:37.688Z,99025.59
2018-12-04T02:10:07.401Z,99022.59
2018-12-04T02:12:36.550Z,99034.03
2018-12-04T02:15:07.439Z,99037.59
2018-12-04T02:17:36.802Z,99033.19
2018-12-04T02:20:06.402Z,99031.54
2018-12-04T02:22:35.926Z,99048.07
2018-12-04T02:25:05.203Z,99042.77
2018-12-04T02:27:34.457Z,99046.70
2018-12-04T02:30:03.853Z,99055.00
2018-12-04T02:32:33.071Z,99047.30
2018-12-04T02:35:02.313Z,99052.38
2018-12-04T02:37:31.595Z,99061.98
2018-12-04T02:40:00.980Z,99063.73
2018-12-04T02:42:30.211Z,99068.25
2018-12-04T02:44:59.402Z,99072.17
2018-12-04T02:47:28.758Z,99069.98
2018-12-04T02:49:57.967Z,99083.95
2018-12-04T02:52:27.461Z,99089.14
2018-12-04T02:54:56.589Z,99092.78
2018-12-04T02:57:25.738Z,99093.59
2018-12-04T02:59:55.012Z,99103.16
2018-12-04T03:02:24.300Z,99108.83
2018-12-04T03:04:53.520Z,99101.41
2018-12-04T03:07:23.724Z,99114.16
2018-12-04T03:09:52.841Z,99115.52
2018-12-04T03:12:22.023Z,99122.01
2018-12-04T03:14:51.035Z,99117.17
2018-12-04T03:17:20.159Z,99128.17
2018-12-04T03:19:49.547Z,99142.95
2018-12-04T03:22:18.776Z,99139.95
2018-12-04T03:24:48.354Z,99150.48
2018-12-04T03:27:17.622Z,99147.91
2018-12-04T03:29:46.683Z,99154.94
2018-12-04T03:32:15.943Z,99160.55
2018-12-04T03:34:45.208Z,99162.83
2018-12-04T03:37:14.441Z,99161.95
2018-12-04T03:39:43.620Z,99166.31
2018-12-04T03:42:12.870Z,99174.22
2018-12-04T03:44:42.459Z,99177.02
2018-12-04T03:47:11.980Z,99175.27
2018-12-04T03:49:41.549Z,99185.73
2018-12-04T03:52:10.954Z,99183.95
2018-12-04T03:54:40.534Z,99191.88
2018-12-04T03:57:10.143Z,99180.50
2018-12-04T03:59:39.579Z,99187.88
2018-12-04T04:02:09.029Z,99192.63
2018-12-04T04:04:38.379Z,99183.55
2018-12-04T04:07:07.715Z,99196.64
2018-12-04T04:09:37.142Z,99208.46
2018-12-04T04:12:06.642Z,99206.41
2018-12-04T04:14:36.048Z,99200.82
2018-12-04T04:17:05.399Z,99223.06
2018-12-04T04:19:34.732Z,99094.78
2018-12-04T04:22:04.012Z,99214.73
2018-12-04T04:24:33.115Z,99231.31
2018-12-04T04:27:02.296Z,99229.55
2018-12-04T04:29:31.651Z,99240.90
2018-12-04T04:32:00.984Z,99246.05
2018-12-04T04:34:30.258Z,99251.37
2018-12-04T04:36:59.454Z,99254.81
2018-12-04T04:39:28.821Z,99257.39
2018-12-04T04:41:58.185Z,99267.86
2018-12-04T04:44:27.461Z,99269.68
2018-12-04T04:46:56.802Z,99267.11
2018-12-04T04:49:26.158Z,99273.61
2018-12-04T04:51:55.388Z,99274.91
2018-12-04T04:54:24.855Z,99276.66
2018-12-04T04:56:54.761Z,99289.78
2018-12-04T04:59:24.320Z,99278.41
2018-12-04T05:01:53.627Z,99285.34
2018-12-04T05:04:22.975Z,99283.13
2018-12-04T05:06:52.198Z,99296.68
2018-12-04T05:09:21.573Z,99309.29
2018-12-04T05:11:50.824Z,99303.70
2018-12-04T05:14:20.053Z,99305.44
2018-12-04T05:16:49.298Z,99311.98
2018-12-04T05:19:18.581Z,99309.41
2018-12-04T05:21:47.864Z,99316.42
2018-12-04T05:24:17.153Z,99316.81
2018-12-04T05:26:46.523Z,99320.70
2018-12-04T05:29:15.803Z,99328.08
2018-12-04T05:31:44.956Z,99333.31
2018-12-04T05:34:14.358Z,99352.54
2018-12-04T05:36:43.641Z,99351.13
2018-12-04T05:39:12.857Z,99360.39
2018-12-04T05:41:42.367Z,99350.36
2018-12-04T05:44:11.984Z,99370.92
2018-12-04T05:46:41.334Z,99376.59
2018-12-04T05:49:10.587Z,99373.11
2018-12-04T05:51:40.113Z,99375.32
2018-12-04T05:54:14.173Z,99392.73
2018-12-04T05:56:43.880Z,99397.13
2018-12-04T05:59:13.334Z,99404.20
2018-12-04T06:01:42.533Z,99416.41
2018-12-04T06:04:12.071Z,99412.48
2018-12-04T06:06:41.418Z,99423.82
2018-12-04T06:09:11.557Z,99434.75
2018-12-04T06:11:41.342Z,99431.64
2018-12-04T06:14:10.657Z,99440.80
2018-12-04T06:16:40.114Z,99446.03
2018-12-04T06:19:09.531Z,99455.59
2018-12-04T06:21:39.224Z,99458.14
2018-12-04T06:24:09.051Z,99464.25
2018-12-04T06:26:38.546Z,99476.40
2018-12-04T06:29:07.729Z,99485.19
2018-12-04T06:31:37.159Z,99493.47
2018-12-04T06:34:06.718Z,99500.81
2018-12-04T06:36:36.454Z,99494.66
2018-12-04T06:39:08.031Z,99498.11
2018-12-04T06:41:37.576Z,99508.08
2018-12-04T06:44:06.932Z,99494.97
2018-12-04T06:46:36.230Z,99514.13
2018-12-04T06:49:06.087Z,99513.28
2018-12-04T06:51:35.406Z,99512.82
2018-12-04T06:54:04.723Z,99525.72
2018-12-04T06:56:33.974Z,99545.53
2018-12-04T06:59:02.954Z,99543.05
2018-12-04T07:01:32.727Z,99550.97
2018-12-04T07:04:01.997Z,99562.41
2018-12-04T07:06:31.225Z,99567.67
2018-12-04T07:09:00.212Z,99577.67
2018-12-04T07:11:29.511Z,99583.31
2018-12-04T07:13:58.814Z,99587.74
2018-12-04T07:16:27.744Z,99599.95
2018-12-04T07:18:57.157Z,99599.88
2018-12-04T07:21:26.485Z,99600.02
2018-12-04T07:23:55.726Z,99618.20
2018-12-04T07:26:24.980Z,99625.18
2018-12-04T07:28:54.444Z,99619.07
2018-12-04T07:31:23.857Z,99623.44
2018-12-04T07:33:53.191Z,99637.81
2018-12-04T07:36:28.688Z,99640.53
2018-12-04T07:38:58.028Z,99643.59
2018-12-04T07:41:27.271Z,99648.36
2018-12-04T07:43:56.727Z,99658.32
2018-12-04T07:46:26.038Z,99679.27
2018-12-04T07:48:55.289Z,99673.56
2018-12-04T07:51:24.679Z,99681.04
2018-12-04T07:53:53.948Z,99681.02
2018-12-04T07:56:23.254Z,99685.81
2018-12-04T07:58:52.932Z,99698.45
2018-12-04T08:01:22.338Z,99702.84
2018-12-04T08:03:51.631Z,99710.66
2018-12-04T08:06:20.901Z,99715.92
2018-12-04T08:08:50.120Z,99718.50
2018-12-04T08:11:19.468Z,99718.50
2018-12-04T08:13:48.773Z,99734.23
2018-12-04T08:16:18.125Z,99742.94
2018-12-04T08:18:47.680Z,99763.86
2018-12-04T08:21:30.583Z,99767.42
2018-12-04T08:23:59.743Z,99772.75
2018-12-04T08:26:29.065Z,99784.14
2018-12-04T08:28:58.247Z,99785.94
2018-12-04T08:31:27.264Z,99785.97
2018-12-04T08:33:56.749Z,99801.70
2018-12-04T08:36:26.008Z,99799.12
2018-12-04T08:38:55.168Z,99795.64
2018-12-04T08:41:24.336Z,99800.05
2018-12-04T08:43:53.647Z,99808.28
2018-12-04T08:46:23.404Z,99814.81
2018-12-04T08:48:52.775Z,99837.45
2018-12-04T08:51:22.181Z,99841.83
2018-12-04T08:53:51.591Z,99851.45
2018-12-04T08:56:20.951Z,99849.69
2018-12-04T08:58:50.133Z,99859.33
2018-12-04T09:01:19.393Z,99867.17
2018-12-04T09:03:48.581Z,99881.16
2018-12-04T09:06:18.148Z,99894.26
2018-12-04T09:08:47.600Z,99902.09
2018-12-04T09:11:17.043Z,99902.97
2018-12-04T09:13:46.409Z,99910.00
2018-12-04T09:16:15.805Z,99915.26
2018-12-04T09:18:45.198Z,99907.38
2018-12-04T09:21:14.720Z,99912.13
2018-12-04T09:23:44.261Z,99923.04
2018-12-04T09:26:13.627Z,99941.35
2018-12-04T09:28:43.236Z,99941.35
2018-12-04T09:31:12.537Z,99951.82
2018-12-04T09:33:42.001Z,99956.20
2018-12-04T09:36:11.542Z,99956.60
2018-12-04T09:38:41.048Z,99967.09
2018-12-04T09:41:10.511Z,99974.48
2018-12-04T09:43:39.939Z,99974.53
2018-12-04T09:46:09.436Z,99995.50
2018-12-04T09:48:38.925Z,100007.31
2018-12-04T09:51:24.467Z,100001.67
2018-12-04T09:53:54.733Z,100008.66
2018-12-04T09:56:24.033Z,100008.64
2018-12-04T09:58:53.361Z,100018.20
2018-12-04T10:01:22.622Z,100025.59
2018-12-04T10:03:51.975Z,100040.02
2018-12-04T10:06:21.368Z,100041.77
2018-12-04T10:08:50.796Z,100050.47
2018-12-04T10:11:20.114Z,100053.51
2018-12-04T10:13:49.407Z,100062.67
2018-12-04T10:16:18.751Z,100061.83
2018-12-04T10:18:48.159Z,100053.11
2018-12-04T10:21:17.359Z,100061.80
2018-12-04T10:23:46.974Z,100072.26
2018-12-04T10:26:16.252Z,100080.99
2018-12-04T10:28:45.601Z,100082.73
2018-12-04T10:31:14.891Z,100086.22
2018-12-04T10:33:44.063Z,100096.70
2018-12-04T10:36:13.431Z,100098.44
2018-12-04T10:38:42.744Z,100095.84
2018-12-04T10:41:12.460Z,100104.97
2018-12-04T10:43:41.923Z,100087.12
2018-12-04T10:46:11.469Z,100122.41
2018-12-04T10:48:40.965Z,100128.93
2018-12-04T10:51:10.522Z,100129.81
2018-12-04T10:53:40.219Z,100133.73
2018-12-04T10:56:09.572Z,100152.45
2018-12-04T10:58:39.016Z,100143.75
2018-12-04T11:01:13.283Z,100151.61
2018-12-04T11:03:42.565Z,100163.37
2018-12-04T11:06:12.013Z,100162.47
2018-12-04T11:08:41.588Z,100165.52
2018-12-04T11:11:10.938Z,100169.91
2018-12-04T11:13:40.457Z,100177.73
2018-12-04T11:16:09.970Z,100178.60
2018-12-04T11:18:40.043Z,100182.98
2018-12-04T11:21:09.399Z,100182.11
2018-12-04T11:23:38.948Z,100190.84
2018-12-04T11:26:09.523Z,100192.16
2018-12-04T11:28:39.434Z,100199.55
2018-12-04T11:31:08.512Z,100203.05
2018-12-04T11:33:37.722Z,100204.34
2018-12-04T11:36:06.947Z,100211.78
2018-12-04T11:38:36.266Z,100211.34
2018-12-04T11:41:05.507Z,100224.84
2018-12-04T11:43:34.823Z,100220.50
2018-12-04T11:46:04.235Z,100226.61
2018-12-04T11:48:33.560Z,100228.36
2018-12-04T11:51:02.799Z,100238.39
2018-12-04T11:53:32.103Z,100240.98
2018-12-04T11:56:02.974Z,100235.34
2018-12-04T11:58:32.408Z,100250.16
2018-12-04T12:01:01.917Z,100249.30
2018-12-04T12:03:31.252Z,100251.03
2018-12-04T12:06:00.599Z,100271.11
2018-12-04T12:08:29.841Z,100271.98
2018-12-04T12:10:59.135Z,100282.45
2018-12-04T12:13:28.503Z,100283.74
2018-12-04T12:15:57.875Z,100292.48
2018-12-04T12:18:27.183Z,100296.41
2018-12-04T12:20:56.443Z,100310.38
2018-12-04T12:23:25.877Z,100303.81
2018-12-04T12:25:55.201Z,100317.30
2018-12-04T12:28:24.530Z,100326.05
2018-12-04T12:30:54.186Z,100336.05
2018-12-04T12:33:23.454Z,100343.45
2018-12-04T12:35:52.954Z,100353.04
2018-12-04T12:38:22.144Z,100357.80
2018-12-04T12:40:51.364Z,100366.10
2018-12-04T12:43:21.517Z,100371.77
2018-12-04T12:45:50.969Z,100373.05
2018-12-04T12:48:20.287Z,100373.93
2018-12-04T12:50:49.518Z,100383.94
2018-12-04T12:53:18.806Z,100392.67
2018-12-04T12:55:48.270Z,100396.59
2018-12-04T12:58:17.795Z,100400.91
2018-12-04T13:00:47.117Z,100409.20
2018-12-04T13:03:16.357Z,100408.34
2018-12-04T13:05:45.688Z,100414.88
2018-12-04T13:08:15.041Z,100429.23
2018-12-04T13:10:44.297Z,100430.55
2018-12-04T13:13:13.463Z,100434.47
2018-12-04T13:15:42.767Z,100447.56
2018-12-04T13:18:12.112Z,100444.45
2018-12-04T13:20:41.620Z,100450.13
2018-12-04T13:23:10.983Z,100452.74
2018-12-04T13:25:40.904Z,100469.72
2018-12-04T13:28:10.364Z,100475.78
2018-12-04T13:30:39.607Z,100487.12
2018-12-04T13:33:09.440Z,100487.55
2018-12-04T13:35:38.955Z,100490.13
2018-12-04T13:38:08.431Z,100496.22
2018-12-04T13:40:37.812Z,100497.49
2018-12-04T13:43:07.212Z,100507.07
2018-12-04T13:45:36.614Z,100513.58
2018-12-04T13:48:06.114Z,100517.47
2018-12-04T13:50:35.462Z,100517.89
2018-12-04T13:53:04.726Z,100522.70
2018-12-04T13:55:34.289Z,100533.94
2018-12-04T13:58:03.630Z,100537.33
2018-12-04T14:00:33.000Z,100536.52
2018-12-04T14:03:02.218Z,100545.27
2018-12-04T14:05:31.584Z,100558.34
2018-12-04T14:08:00.909Z,100569.61
2018-12-04T14:10:30.211Z,100572.60
2018-12-04T14:12:59.619Z,100567.02
2018-12-04T14:15:29.092Z,100577.48
2018-12-04T14:17:58.637Z,100577.48
2018-12-04T14:20:27.810Z,100587.81
2018-12-04T14:22:56.941Z,100598.34
2018-12-04T14:25:26.267Z,100596.58
2018-12-04T14:27:55.717Z,100600.46
2018-12-04T14:30:24.871Z,100612.68
2018-12-04T14:32:54.582Z,100604.30
2018-12-04T14:35:24.880Z,100617.40
2018-12-04T14:37:54.285Z,100630.80
2018-12-04T14:40:23.793Z,100631.27
2018-12-04T14:42:55.210Z,100639.95
2018-12-04T14:45:25.197Z,100647.41
2018-12-04T14:47:54.549Z,100657.39
2018-12-04T14:50:24.456Z,100671.43
2018-12-04T14:52:55.239Z,100667.84
2018-12-04T14:55:24.987Z,100674.75
2018-12-04T14:57:56.341Z,100702.73
2018-12-04T15:00:39.976Z,100675.59
2018-12-04T15:03:09.195Z,100688.73
2018-12-04T15:05:40.897Z,100692.15
2018-12-04T15:08:15.899Z,100704.37
2018-12-04T15:10:45.387Z,100700.88
2018-12-04T15:13:14.857Z,100717.75
2018-12-04T15:15:44.315Z,100710.34
2018-12-04T15:18:14.662Z,100714.30
2018-12-04T15:20:43.958Z,100727.78
2018-12-04T15:23:17.861Z,100734.73
2018-12-04T15:25:50.277Z,100739.06
2018-12-04T15:28:19.466Z,100730.72
2018-12-04T15:30:48.853Z,100752.59
2018-12-04T15:33:18.236Z,100755.16
2018-12-04T15:35:47.906Z,100756.47
2018-12-04T15:38:28.149Z,100757.28
2018-12-04T15:41:09.152Z,100765.13
2018-12-04T15:43:45.967Z,100770.81
2018-12-04T15:46:20.556Z,100783.30
2018-12-04T15:48:51.269Z,100776.41
2018-12-04T15:51:20.469Z,100783.47
2018-12-04T15:53:49.815Z,100800.80
2018-12-04T15:56:19.212Z,100802.95
2018-12-04T15:58:50.656Z,100810.37
2018-12-04T16:01:22.175Z,100803.77
2018-12-04T16:03:51.684Z,100823.36
2018-12-04T16:06:22.523Z,100821.64
2018-12-04T16:08:51.939Z,100824.66
2018-12-04T16:11:21.787Z,100826.86
2018-12-04T16:13:51.280Z,100827.69
2018-12-04T16:16:21.243Z,100825.87
2018-12-04T16:18:50.220Z,100847.64
2018-12-04T16:21:19.497Z,100841.86
2018-12-04T16:23:50.055Z,100855.35
2018-12-04T16:26:19.486Z,100858.50
2018-12-04T16:28:49.366Z,100857.91
2018-12-04T16:31:18.634Z,100860.27
2018-12-04T16:33:48.511Z,100868.05
2018-12-04T16:36:19.035Z,100882.88
2018-12-04T16:38:54.918Z,100768.29
2018-12-04T16:41:24.276Z,100877.95
2018-12-04T16:43:53.514Z,100870.23
2018-12-04T16:46:23.269Z,100884.54
2018-12-04T16:48:52.472Z,100884.07
2018-12-04T16:51:23.041Z,100902.76
2018-12-04T16:53:54.222Z,100895.41
2018-12-04T16:56:23.598Z,100904.55
2018-12-04T16:58:52.979Z,100914.30
2018-12-04T17:01:22.379Z,100922.59
2018-12-04T17:03:53.394Z,100916.97
2018-12-04T17:06:23.566Z,100923.42
2018-12-04T17:08:54.092Z,100933.39
2018-12-04T17:11:23.524Z,100941.17
2018-12-04T17:13:53.715Z,100938.14
2018-12-04T17:16:30.038Z,100951.61
2018-12-04T17:18:59.433Z,100952.83
2018-12-04T17:21:29.101Z,100961.50
2018-12-04T17:23:58.409Z,100948.87
2018-12-04T17:26:27.790Z,100958.48
2018-12-04T17:28:57.340Z,100960.55
2018-12-04T17:31:26.997Z,100956.63
2018-12-04T17:33:56.442Z,100959.70
2018-12-04T17:36:25.942Z,100963.62
2018-12-04T17:38:55.568Z,100978.35
2018-12-04T17:41:24.942Z,100977.11
2018-12-04T17:43:55.011Z,101004.09
2018-12-04T17:46:24.735Z,100998.46
2018-12-04T17:48:54.416Z,100995.31
2018-12-04T17:51:24.360Z,101009.25
2018-12-04T17:53:53.753Z,101009.18
2018-12-04T17:56:23.266Z,101007.47
2018-12-04T17:58:52.835Z,101017.52
2018-12-04T18:01:22.032Z,101034.48
2018-12-04T18:03:51.602Z,101047.50
2018-12-04T18:06:21.334Z,101043.52
2018-12-04T18:08:51.808Z,101041.63
2018-12-04T18:11:21.006Z,101050.22
2018-12-04T18:13:51.173Z,101057.83
2018-12-04T18:16:20.251Z,101070.72
2018-12-04T18:18:49.291Z,101070.93
2018-12-04T18:21:18.875Z,101068.32
2018-12-04T18:23:48.384Z,101070.83
2018-12-04T18:26:18.242Z,101079.05
2018-12-04T18:28:47.805Z,101086.40
2018-12-04T18:31:17.707Z,101096.86
2018-12-04T18:33:47.462Z,101105.16
2018-12-04T18:36:17.095Z,101103.84
2018-12-04T18:38:46.569Z,101116.34
2018-12-04T18:41:16.088Z,101109.89
2018-12-04T18:43:45.618Z,101115.09
2018-12-04T18:46:16.457Z,101124.72
2018-12-04T18:48:46.030Z,101128.19
2018-12-04T18:51:15.099Z,101129.40
2018-12-04T18:53:44.923Z,101135.51
2018-12-04T18:56:14.332Z,101137.72
2018-12-04T18:58:43.453Z,101135.76
2018-12-04T19:01:13.682Z,101138.44
2018-12-04T19:03:43.114Z,101144.57
2018-12-04T19:06:12.904Z,101154.94
2018-12-04T19:08:49.552Z,101164.94
2018-12-04T19:11:19.185Z,101161.42
2018-12-04T19:13:48.090Z,101161.34
2018-12-04T19:16:17.904Z,101174.78
2018-12-04T19:18:47.304Z,101176.11
2018-12-04T19:21:16.486Z,101175.64
2018-12-04T19:23:46.158Z,101189.95
2018-12-04T19:26:15.563Z,101189.50
2018-12-04T19:28:44.995Z,101190.37
2018-12-04T19:31:14.808Z,101203.53
2018-12-04T19:33:44.396Z,101196.66
2018-12-04T19:36:13.954Z,101209.47
2018-12-04T19:38:43.185Z,101220.77
2018-12-04T19:41:12.238Z,101226.32
2018-12-04T19:43:42.091Z,101232.38
2018-12-04T19:46:11.906Z,101239.70
2018-12-04T19:48:41.426Z,101246.70
2018-12-04T19:51:11.126Z,101242.70
2018-12-04T19:53:40.924Z,101246.67
2018-12-04T19:56:10.861Z,101247.48
2018-12-04T19:58:40.287Z,101255.31
2018-12-04T20:01:10.162Z,101245.70
2018-12-04T20:03:41.409Z,101268.36
2018-12-04T20:06:11.033Z,101280.41
2018-12-04T20:08:45.158Z,101274.57
2018-12-04T20:11:14.998Z,101283.63
2018-12-04T20:13:44.390Z,101284.53
2018-12-04T20:16:13.842Z,101290.06
2018-12-04T20:18:43.194Z,101297.80
2018-12-04T20:21:12.608Z,101307.71
2018-12-04T20:23:42.029Z,101312.93
2018-12-04T20:26:11.541Z,101319.06
2018-12-04T20:28:40.915Z,101323.75
2018-12-04T20:31:41.397Z,101329.11
2018-12-04T20:34:11.081Z,101339.55
2018-12-04T20:36:40.729Z,101339.55
2018-12-04T20:39:10.992Z,101352.36
2018-12-04T20:41:40.547Z,101349.27
2018-12-04T20:44:10.102Z,101365.81
2018-12-04T20:46:39.722Z,101371.80
2018-12-04T20:49:09.642Z,101363.56
2018-12-04T20:51:39.445Z,101368.01
2018-12-04T20:54:09.574Z,101366.31
2018-12-04T20:56:40.265Z,101368.40
2018-12-04T20:59:09.602Z,101375.75
2018-12-04T21:01:40.607Z,101388.08
2018-12-04T21:04:10.087Z,101380.88
2018-12-04T21:06:39.671Z,101392.16
2018-12-04T21:09:09.903Z,101392.16
2018-12-04T21:11:39.868Z,101400.72
2018-12-04T21:14:09.686Z,101406.03
2018-12-04T21:16:39.459Z,101409.41
2018-12-04T21:19:09.524Z,101408.48
2018-12-04T21:21:39.352Z,101414.91
2018-12-04T21:24:09.229Z,101414.15
2018-12-04T21:26:39.200Z,101410.81
2018-12-04T21:29:13.626Z,101424.20
2018-12-04T21:31:48.118Z,101416.19
2018-12-04T21:34:22.251Z,101425.06
2018-12-04T21:36:56.376Z,101434.81
2018-12-04T21:39:30.788Z,101433.61
2018-12-04T21:42:04.032Z,101440.03
2018-12-04T21:44:38.309Z,101440.92
2018-12-04T21:47:12.701Z,101439.94
2018-12-04T21:49:42.133Z,101441.81
2018-12-04T21:52:11.582Z,101452.03
2018-12-04T21:54:41.005Z,101454.58
2018-12-04T21:57:10.581Z,101462.23
2018-12-04T21:59:39.937Z,101467.90
2018-12-04T22:02:09.467Z,101473.56
2018-12-04T22:04:38.980Z,101472.38
2018-12-04T22:07:09.369Z,101476.67
2018-12-04T22:09:38.632Z,101468.95
2018-12-04T22:12:09.705Z,101465.23
2018-12-04T22:14:39.421Z,101468.76
2018-12-04T22:17:08.907Z,101475.18
2018-12-04T22:19:38.454Z,101472.48
2018-12-04T22:22:07.825Z,101479.57
2018-12-04T22:24:37.424Z,101337.20
2018-12-04T22:27:07.068Z,101486.17
2018-12-04T22:29:36.469Z,101488.98
2018-12-04T22:32:06.619Z,101498.39
2018-12-04T22:34:36.113Z,101503.12
2018-12-04T22:37:05.569Z,101513.07
2018-12-04T22:39:35.045Z,101521.55
2018-12-04T22:42:04.420Z,101519.05
2018-12-04T22:44:33.931Z,101520.38
2018-12-04T22:47:03.090Z,101526.04
2018-12-04T22:49:32.415Z,101535.89
2018-12-04T22:52:01.643Z,101543.70
2018-12-04T22:54:30.984Z,101544.84
2018-12-04T22:57:00.082Z,101548.30
2018-12-04T22:59:29.390Z,101546.59
2018-12-04T23:01:58.719Z,101559.82
2018-12-04T23:04:28.144Z,101559.17
2018-12-04T23:06:57.625Z,101561.30
2018-12-04T23:09:27.220Z,101559.73
2018-12-04T23:11:56.523Z,101565.48
2018-12-04T23:14:25.863Z,101575.09
2018-12-04T23:16:55.310Z,101574.60
2018-12-04T23:19:24.923Z,101576.02
2018-12-04T23:21:54.222Z,101577.10
2018-12-04T23:24:23.458Z,101581.66
2018-12-04T23:26:53.062Z,101583.33
2018-12-04T23:29:22.327Z,101596.47
2018-12-04T23:31:51.854Z,101599.78
2018-12-04T23:34:21.191Z,101604.33
2018-12-04T23:36:50.335Z,101601.36
2018-12-04T23:39:19.665Z,101598.75
2018-12-04T23:41:49.110Z,101601.05
2018-12-04T23:44:20.579Z,101597.70
2018-12-04T23:46:49.789Z,101603.88
2018-12-04T23:49:19.048Z,101609.17
2018-12-04T23:51:48.295Z,101611.78
2018-12-04T23:54:17.615Z,101611.70
2018-12-04T23:56:46.888Z,101612.27
2018-12-04T23:59:16.249Z,101616.06
